Time,TemperatureF,DewpointF,PressureIn,WindDirection,WindDirectionDegrees,WindSpeedMPH,WindSpeedGustMPH,Humidity,HourlyPrecipIn,Conditions,Clouds,dailyrainin,SoftwareType,DateUTC
2013-07-25 00:02:00,71.0,44.0,-100.00,SSW,203,6.0,7.0,38,0.00,,,0.00,,2013-07-25 06:02:00,
2013-07-25 00:22:00,72.0,48.0,-100.00,SW,222,9.0,11.0,42,0.00,,,0.00,,2013-07-25 06:22:00,
2013-07-25 00:32:00,72.0,48.0,-100.00,SW,222,9.0,11.0,42,0.00,,,0.00,,2013-07-25 06:32:00,
2013-07-25 00:42:00,70.0,47.0,-100.00,SSE,151,6.0,8.0,44,0.00,,,0.00,,2013-07-25 06:42:00,
2013-07-25 00:52:00,70.0,47.0,-100.00,SSE,151,6.0,8.0,44,0.00,,,0.00,,2013-07-25 06:52:00,
2013-07-25 01:02:00,70.0,47.0,-100.00,SSE,151,6.0,8.0,44,0.00,,,0.00,,2013-07-25 07:02:00,
2013-07-25 01:22:00,72.0,47.0,-100.00,SSE,167,3.0,4.0,40,0.00,,,0.00,,2013-07-25 07:22:00,
2013-07-25 01:32:00,72.0,47.0,-100.00,SSE,167,3.0,4.0,40,0.00,,,0.00,,2013-07-25 07:32:00,
2013-07-25 01:43:00,73.0,43.0,-100.00,SSE,165,6.0,7.0,34,0.00,,,0.00,,2013-07-25 07:43:00,
2013-07-25 01:53:00,73.0,43.0,-100.00,SSE,165,6.0,7.0,34,0.00,,,0.00,,2013-07-25 07:53:00,
2013-07-25 02:02:00,73.0,43.0,-100.00,SSE,165,6.0,7.0,34,0.00,,,0.00,,2013-07-25 08:02:00,
2013-07-25 02:22:00,70.0,46.0,-100.00,SSE,158,7.0,9.0,42,0.00,,,0.00,,2013-07-25 08:22:00,
2013-07-25 02:32:00,70.0,46.0,-100.00,SSE,158,7.0,9.0,42,0.00,,,0.00,,2013-07-25 08:32:00,
2013-07-25 02:44:00,70.0,44.0,-100.00,South,171,6.0,6.0,40,0.00,,,0.00,,2013-07-25 08:44:00,
2013-07-25 02:52:00,70.0,44.0,-100.00,South,171,6.0,6.0,40,0.00,,,0.00,,2013-07-25 08:52:00,
2013-07-25 03:02:00,70.0,44.0,-100.00,South,171,6.0,6.0,40,0.00,,,0.00,,2013-07-25 09:02:00,
2013-07-25 03:22:00,62.0,47.0,-100.00,SE,137,8.0,10.0,57,0.00,,,0.00,,2013-07-25 09:22:00,
2013-07-25 03:33:00,62.0,47.0,-100.00,SE,137,8.0,10.0,57,0.00,,,0.00,,2013-07-25 09:33:00,
2013-07-25 03:53:00,65.0,45.0,-100.00,SE,134,8.0,9.0,48,0.00,,,0.00,,2013-07-25 09:53:00,
2013-07-25 04:02:00,65.0,45.0,-100.00,SE,134,8.0,9.0,48,0.00,,,0.00,,2013-07-25 10:02:00,
2013-07-25 04:22:00,65.0,44.0,-100.00,SE,134,6.0,8.0,46,0.00,,,0.00,,2013-07-25 10:22:00,
2013-07-25 04:53:00,68.0,46.0,-100.00,SE,133,2.0,3.0,44,0.00,,,0.00,,2013-07-25 10:53:00,
2013-07-25 05:02:00,68.0,46.0,-100.00,SE,133,2.0,3.0,44,0.00,,,0.00,,2013-07-25 11:02:00,
2013-07-25 05:43:00,64.0,51.0,-100.00,SSW,200,5.0,6.0,64,0.00,,,0.00,,2013-07-25 11:43:00,
2013-07-25 05:52:00,64.0,51.0,-100.00,SSW,200,5.0,6.0,64,0.00,,,0.00,,2013-07-25 11:52:00,
2013-07-25 06:02:00,64.0,51.0,-100.00,SSW,200,5.0,6.0,64,0.00,,,0.00,,2013-07-25 12:02:00,
2013-07-25 06:22:00,60.0,50.0,-100.00,SE,145,7.0,9.0,70,0.00,,,0.00,,2013-07-25 12:22:00,
2013-07-25 06:32:00,60.0,50.0,-100.00,SE,145,7.0,9.0,70,0.00,,,0.00,,2013-07-25 12:32:00,
2013-07-25 06:44:00,60.0,48.0,-100.00,SE,141,6.0,7.0,65,0.00,,,0.00,,2013-07-25 12:44:00,
2013-07-25 06:53:00,60.0,48.0,-100.00,SE,141,6.0,7.0,65,0.00,,,0.00,,2013-07-25 12:53:00,
2013-07-25 07:02:00,60.0,48.0,-100.00,SE,141,6.0,7.0,65,0.00,,,0.00,,2013-07-25 13:02:00,
2013-07-25 07:12:00,60.0,48.0,-100.00,SE,141,6.0,7.0,65,0.00,,,0.00,,2013-07-25 13:12:00,
2013-07-25 07:22:00,61.0,46.0,-100.00,SSE,160,7.0,8.0,57,0.00,,,0.00,,2013-07-25 13:22:00,
2013-07-25 07:32:00,61.0,46.0,-100.00,SSE,160,7.0,8.0,57,0.00,,,0.00,,2013-07-25 13:32:00,
2013-07-25 07:42:00,61.0,46.0,-100.00,SSE,160,7.0,8.0,57,0.00,,,0.00,,2013-07-25 13:42:00,
2013-07-25 07:53:00,63.0,50.0,-100.00,SSE,154,5.0,6.0,62,0.00,,,0.00,,2013-07-25 13:53:00,
2013-07-25 08:02:00,63.0,50.0,-100.00,SSE,154,5.0,6.0,62,0.00,,,0.00,,2013-07-25 14:02:00,
2013-07-25 08:22:00,67.0,45.0,-100.00,SSW,198,4.0,5.0,46,0.00,,,0.00,,2013-07-25 14:22:00,
2013-07-25 08:33:00,67.0,45.0,-100.00,SSW,198,4.0,5.0,46,0.00,,,0.00,,2013-07-25 14:33:00,
2013-07-25 08:43:00,67.0,49.0,-100.00,SW,234,2.0,4.0,53,0.00,,,0.00,,2013-07-25 14:43:00,
2013-07-25 08:53:00,67.0,49.0,-100.00,SW,234,2.0,4.0,53,0.00,,,0.00,,2013-07-25 14:53:00,
2013-07-25 09:02:00,67.0,49.0,-100.00,SW,234,2.0,4.0,53,0.00,,,0.00,,2013-07-25 15:02:00,
2013-07-25 09:43:00,71.0,51.0,-100.00,West,281,6.0,7.0,48,0.00,,,0.00,,2013-07-25 15:43:00,
2013-07-25 09:45:00,75.0,48.0,-100.00,NW,305,3.0,4.0,38,0.00,,,0.00,,2013-07-25 15:45:00,
2013-07-25 09:53:00,71.0,51.0,-100.00,West,281,6.0,7.0,48,0.00,,,0.00,,2013-07-25 15:53:00,
2013-07-25 10:02:00,71.0,51.0,-100.00,West,281,6.0,7.0,48,0.00,,,0.00,,2013-07-25 16:02:00,
2013-07-25 10:22:00,75.0,48.0,-100.00,NW,305,3.0,4.0,38,0.00,,,0.00,,2013-07-25 16:22:00,
2013-07-25 10:33:00,75.0,48.0,-100.00,NW,305,3.0,4.0,38,0.00,,,0.00,,2013-07-25 16:33:00,
2013-07-25 10:53:00,76.0,44.0,-100.00,NNW,337,4.0,5.0,32,0.00,,,0.00,,2013-07-25 16:53:00,
2013-07-25 11:02:00,76.0,44.0,-100.00,NNW,337,4.0,5.0,32,0.00,,,0.00,,2013-07-25 17:02:00,
2013-07-25 11:12:00,76.0,44.0,-100.00,NNW,337,4.0,5.0,32,0.00,,,0.00,,2013-07-25 17:12:00,
2013-07-25 11:22:00,77.0,49.0,-100.00,North,349,4.0,6.0,38,0.00,,,0.00,,2013-07-25 17:22:00,
2013-07-25 11:32:00,77.0,49.0,-100.00,North,349,4.0,6.0,38,0.00,,,0.00,,2013-07-25 17:32:00,
2013-07-25 11:43:00,77.0,52.0,-100.00,North,349,3.0,6.0,41,0.00,,,0.00,,2013-07-25 17:43:00,
2013-07-25 12:02:00,77.0,52.0,-100.00,North,349,3.0,6.0,41,0.00,,,0.00,,2013-07-25 18:02:00,
2013-07-25 12:12:00,77.0,52.0,-100.00,North,349,3.0,6.0,41,0.00,,,0.00,,2013-07-25 18:12:00,
2013-07-25 12:22:00,78.0,46.0,-100.00,WNW,289,5.0,6.0,31,0.00,,,0.00,,2013-07-25 18:22:00,
2013-07-25 12:33:00,78.0,46.0,-100.00,WNW,289,5.0,6.0,31,0.00,,,0.00,,2013-07-25 18:33:00,
2013-07-25 12:43:00,80.0,47.0,-100.00,WSW,250,5.0,8.0,31,0.00,,,0.00,,2013-07-25 18:43:00,
2013-07-25 12:52:00,80.0,47.0,-100.00,WSW,250,5.0,8.0,31,0.00,,,0.00,,2013-07-25 18:52:00,
2013-07-25 13:02:00,80.0,47.0,-100.00,WSW,250,5.0,8.0,31,0.00,,,0.00,,2013-07-25 19:02:00,
2013-07-25 13:22:00,81.0,49.0,-100.00,WNW,285,3.0,4.0,33,0.00,,,0.00,,2013-07-25 19:22:00,
2013-07-25 13:33:00,81.0,49.0,-100.00,WNW,285,3.0,4.0,33,0.00,,,0.00,,2013-07-25 19:33:00,
2013-07-25 13:42:00,84.0,46.0,-100.00,SW,230,5.0,7.0,26,0.00,,,0.00,,2013-07-25 19:42:00,
2013-07-25 13:53:00,84.0,46.0,-100.00,SW,230,5.0,7.0,26,0.00,,,0.00,,2013-07-25 19:53:00,
2013-07-25 14:02:00,84.0,46.0,-100.00,SW,230,5.0,7.0,26,0.00,,,0.00,,2013-07-25 20:02:00,
2013-07-25 14:22:00,86.0,45.0,-100.00,SW,236,5.0,6.0,24,0.00,,,0.00,,2013-07-25 20:22:00,
2013-07-25 14:32:00,86.0,45.0,-100.00,SW,236,5.0,6.0,24,0.00,,,0.00,,2013-07-25 20:32:00,
2013-07-25 14:53:00,87.0,44.0,-100.00,WSW,257,4.0,6.0,22,0.00,,,0.00,,2013-07-25 20:53:00,
2013-07-25 15:02:00,87.0,44.0,-100.00,WSW,257,4.0,6.0,22,0.00,,,0.00,,2013-07-25 21:02:00,
2013-07-25 15:12:00,87.0,44.0,-100.00,WSW,257,4.0,6.0,22,0.00,,,0.00,,2013-07-25 21:12:00,
2013-07-25 15:22:00,91.0,46.0,-100.00,WNW,294,5.0,8.0,21,0.00,,,0.00,,2013-07-25 21:22:00,
2013-07-25 15:32:00,91.0,46.0,-100.00,WNW,294,5.0,8.0,21,0.00,,,0.00,,2013-07-25 21:32:00,
2013-07-25 15:52:00,92.0,45.0,-100.00,WSW,253,4.0,7.0,20,0.00,,,0.00,,2013-07-25 21:52:00,
2013-07-25 16:02:00,92.0,45.0,-100.00,WSW,253,4.0,7.0,20,0.00,,,0.00,,2013-07-25 22:02:00,
2013-07-25 16:12:00,92.0,45.0,-100.00,WSW,253,4.0,7.0,20,0.00,,,0.00,,2013-07-25 22:12:00,
2013-07-25 16:32:00,91.0,46.0,-100.00,West,260,7.0,9.0,21,0.00,,,0.00,,2013-07-25 22:32:00,
2013-07-25 16:43:00,91.0,46.0,-100.00,West,260,7.0,9.0,21,0.00,,,0.00,,2013-07-25 22:43:00,
2013-07-25 16:52:00,91.0,46.0,-100.00,West,260,7.0,9.0,21,0.00,,,0.00,,2013-07-25 22:52:00,
2013-07-25 17:12:00,92.0,39.0,-100.00,West,260,8.0,13.0,16,0.00,,,0.00,,2013-07-25 23:12:00,
2013-07-25 17:22:00,92.0,39.0,-100.00,West,260,8.0,13.0,16,0.00,,,0.00,,2013-07-25 23:22:00,
2013-07-25 17:32:00,94.0,39.0,-100.00,South,182,5.0,8.0,15,0.00,,,0.00,,2013-07-25 23:32:00,
2013-07-25 17:43:00,94.0,39.0,-100.00,South,182,5.0,8.0,15,0.00,,,0.00,,2013-07-25 23:43:00,
2013-07-25 17:52:00,94.0,39.0,-100.00,South,182,5.0,8.0,15,0.00,,,0.00,,2013-07-25 23:52:00,
2013-07-25 18:12:00,93.0,38.0,-100.00,SSW,212,8.0,10.0,15,0.00,,,0.00,,2013-07-26 00:12:00,
2013-07-25 18:22:00,93.0,44.0,-100.00,WSW,250,7.0,9.0,19,0.00,,,0.00,,2013-07-26 00:22:00,
2013-07-25 18:32:00,93.0,44.0,-100.00,WSW,250,7.0,9.0,19,0.00,,,0.00,,2013-07-26 00:32:00,
2013-07-25 18:52:00,92.0,44.0,-100.00,WSW,253,9.0,11.0,19,0.00,,,0.00,,2013-07-26 00:52:00,
2013-07-25 19:02:00,92.0,44.0,-100.00,WSW,253,9.0,11.0,19,0.00,,,0.00,,2013-07-26 01:02:00,
2013-07-25 19:12:00,92.0,44.0,-100.00,WSW,253,9.0,11.0,19,0.00,,,0.00,,2013-07-26 01:12:00,
2013-07-25 20:02:00,90.0,45.0,-100.00,SW,219,8.0,9.0,21,0.00,,,0.00,,2013-07-26 02:02:00,
2013-07-25 20:43:00,85.0,47.0,-100.00,SSW,196,4.0,5.0,27,0.00,,,0.00,,2013-07-26 02:43:00,
2013-07-25 20:52:00,85.0,47.0,-100.00,SSW,196,4.0,5.0,27,0.00,,,0.00,,2013-07-26 02:52:00,
2013-07-25 21:02:00,85.0,47.0,-100.00,SSW,196,4.0,5.0,27,0.00,,,0.00,,2013-07-26 03:02:00,
2013-07-25 21:22:00,80.0,48.0,-100.00,South,189,4.0,6.0,32,0.00,,,0.00,,2013-07-26 03:22:00,
2013-07-25 21:32:00,80.0,48.0,-100.00,South,189,4.0,6.0,32,0.00,,,0.00,,2013-07-26 03:32:00,
2013-07-25 22:42:00,69.0,47.0,-100.00,SE,134,8.0,10.0,46,0.00,,,0.00,,2013-07-26 04:42:00,
2013-07-25 22:53:00,69.0,47.0,-100.00,SE,134,8.0,10.0,46,0.00,,,0.00,,2013-07-26 04:53:00,
2013-07-25 23:32:00,66.0,47.0,-100.00,SE,138,7.0,9.0,50,0.00,,,0.00,,2013-07-26 05:32:00,
2013-07-25 23:43:00,66.0,47.0,-100.00,SE,138,7.0,9.0,50,0.00,,,0.00,,2013-07-26 05:43:00,
2013-07-25 23:52:00,66.0,47.0,-100.00,SE,138,7.0,9.0,50,0.00,,,0.00,,2013-07-26 05:52:00,